sensor_id;sensor_type;location;lat;lon;timestamp;P1;durP1;ratioP1;P2;durP2;ratioP2
20251;SDS011;10284;58.364;15.550;2023-04-25T00:00:47;18.63;;;6.40;;
20251;SDS011;10284;58.364;15.550;2023-04-25T00:03:12;12.55;;;5.65;;
20251;SDS011;10284;58.364;15.550;2023-04-25T00:05:38;17.02;;;6.38;;
20251;SDS011;10284;58.364;15.550;2023-04-25T00:08:04;16.60;;;5.90;;
20251;SDS011;10284;58.364;15.550;2023-04-25T00:10:30;14.32;;;5.72;;
20251;SDS011;10284;58.364;15.550;2023-04-25T00:12:55;15.75;;;6.22;;
20251;SDS011;10284;58.364;15.550;2023-04-25T00:15:22;12.32;;;5.50;;
20251;SDS011;10284;58.364;15.550;2023-04-25T00:17:49;13.77;;;5.70;;
20251;SDS011;10284;58.364;15.550;2023-04-25T00:20:14;15.02;;;5.88;;
20251;SDS011;10284;58.364;15.550;2023-04-25T00:22:40;22.25;;;6.43;;
20251;SDS011;10284;58.364;15.550;2023-04-25T00:25:06;17.95;;;6.30;;
20251;SDS011;10284;58.364;15.550;2023-04-25T00:27:32;9.18;;;5.50;;
20251;SDS011;10284;58.364;15.550;2023-04-25T00:29:57;18.30;;;5.95;;
20251;SDS011;10284;58.364;15.550;2023-04-25T00:32:23;16.23;;;5.88;;
20251;SDS011;10284;58.364;15.550;2023-04-25T00:34:48;12.68;;;6.25;;
20251;SDS011;10284;58.364;15.550;2023-04-25T00:37:14;21.35;;;6.00;;
20251;SDS011;10284;58.364;15.550;2023-04-25T00:39:39;13.60;;;6.15;;
20251;SDS011;10284;58.364;15.550;2023-04-25T00:42:05;18.13;;;6.03;;
20251;SDS011;10284;58.364;15.550;2023-04-25T00:44:30;17.58;;;5.95;;
20251;SDS011;10284;58.364;15.550;2023-04-25T00:46:57;17.50;;;5.93;;
20251;SDS011;10284;58.364;15.550;2023-04-25T00:49:22;13.52;;;5.80;;
20251;SDS011;10284;58.364;15.550;2023-04-25T00:51:48;13.35;;;6.03;;
20251;SDS011;10284;58.364;15.550;2023-04-25T00:54:14;13.75;;;5.68;;
20251;SDS011;10284;58.364;15.550;2023-04-25T00:56:39;13.40;;;5.88;;
20251;SDS011;10284;58.364;15.550;2023-04-25T00:59:05;10.18;;;5.50;;
20251;SDS011;10284;58.364;15.550;2023-04-25T01:01:30;10.38;;;5.50;;
20251;SDS011;10284;58.364;15.550;2023-04-25T01:03:56;9.20;;;5.20;;
20251;SDS011;10284;58.364;15.550;2023-04-25T01:06:23;11.30;;;5.25;;
20251;SDS011;10284;58.364;15.550;2023-04-25T01:08:49;10.20;;;4.70;;
20251;SDS011;10284;58.364;15.550;2023-04-25T01:11:14;7.95;;;4.40;;
20251;SDS011;10284;58.364;15.550;2023-04-25T01:13:39;6.18;;;4.00;;
20251;SDS011;10284;58.364;15.550;2023-04-25T01:16:05;8.90;;;3.92;;
20251;SDS011;10284;58.364;15.550;2023-04-25T01:18:30;12.45;;;4.40;;
20251;SDS011;10284;58.364;15.550;2023-04-25T01:20:56;8.20;;;3.55;;
20251;SDS011;10284;58.364;15.550;2023-04-25T01:23:36;7.90;;;3.45;;
20251;SDS011;10284;58.364;15.550;2023-04-25T01:26:02;5.00;;;3.58;;
20251;SDS011;10284;58.364;15.550;2023-04-25T01:28:28;8.43;;;3.25;;
20251;SDS011;10284;58.364;15.550;2023-04-25T01:30:54;5.95;;;3.30;;
20251;SDS011;10284;58.364;15.550;2023-04-25T01:33:20;4.72;;;3.35;;
20251;SDS011;10284;58.364;15.550;2023-04-25T01:35:46;10.60;;;3.45;;
20251;SDS011;10284;58.364;15.550;2023-04-25T01:38:12;8.27;;;3.83;;
20251;SDS011;10284;58.364;15.550;2023-04-25T01:40:38;7.85;;;3.55;;
20251;SDS011;10284;58.364;15.550;2023-04-25T01:43:05;8.02;;;3.97;;
20251;SDS011;10284;58.364;15.550;2023-04-25T01:45:31;9.60;;;4.53;;
20251;SDS011;10284;58.364;15.550;2023-04-25T01:47:56;8.63;;;4.38;;
20251;SDS011;10284;58.364;15.550;2023-04-25T01:50:24;9.23;;;4.72;;
20251;SDS011;10284;58.364;15.550;2023-04-25T01:52:50;18.17;;;5.45;;
20251;SDS011;10284;58.364;15.550;2023-04-25T01:55:15;10.65;;;5.00;;
20251;SDS011;10284;58.364;15.550;2023-04-25T01:57:41;9.48;;;4.95;;
20251;SDS011;10284;58.364;15.550;2023-04-25T02:00:07;8.30;;;4.93;;
20251;SDS011;10284;58.364;15.550;2023-04-25T02:02:34;8.52;;;4.80;;
20251;SDS011;10284;58.364;15.550;2023-04-25T02:05:00;7.22;;;4.55;;
20251;SDS011;10284;58.364;15.550;2023-04-25T02:07:26;7.70;;;4.30;;
20251;SDS011;10284;58.364;15.550;2023-04-25T02:09:51;10.00;;;4.75;;
20251;SDS011;10284;58.364;15.550;2023-04-25T02:12:17;6.60;;;4.28;;
20251;SDS011;10284;58.364;15.550;2023-04-25T02:14:42;7.15;;;3.53;;
20251;SDS011;10284;58.364;15.550;2023-04-25T02:17:07;6.93;;;3.72;;
20251;SDS011;10284;58.364;15.550;2023-04-25T02:19:33;7.55;;;3.92;;
20251;SDS011;10284;58.364;15.550;2023-04-25T02:21:58;7.55;;;3.65;;
20251;SDS011;10284;58.364;15.550;2023-04-25T02:24:24;5.82;;;3.58;;
20251;SDS011;10284;58.364;15.550;2023-04-25T02:26:49;6.70;;;4.00;;
20251;SDS011;10284;58.364;15.550;2023-04-25T02:29:15;6.10;;;3.90;;
20251;SDS011;10284;58.364;15.550;2023-04-25T02:31:41;6.60;;;4.22;;
20251;SDS011;10284;58.364;15.550;2023-04-25T02:34:07;9.82;;;4.38;;
20251;SDS011;10284;58.364;15.550;2023-04-25T02:36:32;9.55;;;4.97;;
20251;SDS011;10284;58.364;15.550;2023-04-25T02:39:00;10.73;;;4.47;;
20251;SDS011;10284;58.364;15.550;2023-04-25T02:41:26;14.85;;;5.30;;
20251;SDS011;10284;58.364;15.550;2023-04-25T02:43:51;11.50;;;5.53;;
20251;SDS011;10284;58.364;15.550;2023-04-25T02:46:17;9.57;;;4.78;;
20251;SDS011;10284;58.364;15.550;2023-04-25T02:48:42;14.35;;;5.55;;
20251;SDS011;10284;58.364;15.550;2023-04-25T02:51:08;14.23;;;5.53;;
20251;SDS011;10284;58.364;15.550;2023-04-25T02:53:34;14.18;;;5.07;;
20251;SDS011;10284;58.364;15.550;2023-04-25T02:55:59;14.52;;;4.90;;
20251;SDS011;10284;58.364;15.550;2023-04-25T02:58:25;10.25;;;4.63;;
20251;SDS011;10284;58.364;15.550;2023-04-25T03:00:50;7.85;;;4.55;;
20251;SDS011;10284;58.364;15.550;2023-04-25T03:03:16;11.02;;;4.57;;
20251;SDS011;10284;58.364;15.550;2023-04-25T03:05:47;12.52;;;4.53;;
20251;SDS011;10284;58.364;15.550;2023-04-25T03:08:16;9.75;;;4.40;;
20251;SDS011;10284;58.364;15.550;2023-04-25T03:10:41;6.53;;;3.95;;
20251;SDS011;10284;58.364;15.550;2023-04-25T03:13:07;7.75;;;3.85;;
20251;SDS011;10284;58.364;15.550;2023-04-25T03:15:33;9.23;;;3.83;;
20251;SDS011;10284;58.364;15.550;2023-04-25T03:17:58;9.27;;;3.53;;
20251;SDS011;10284;58.364;15.550;2023-04-25T03:20:24;7.47;;;4.00;;
20251;SDS011;10284;58.364;15.550;2023-04-25T03:22:49;7.03;;;3.67;;
20251;SDS011;10284;58.364;15.550;2023-04-25T03:25:15;5.22;;;3.60;;
20251;SDS011;10284;58.364;15.550;2023-04-25T03:27:41;8.35;;;3.67;;
20251;SDS011;10284;58.364;15.550;2023-04-25T03:30:06;11.90;;;3.97;;
20251;SDS011;10284;58.364;15.550;2023-04-25T03:32:33;9.40;;;3.70;;
20251;SDS011;10284;58.364;15.550;2023-04-25T03:34:59;11.15;;;4.32;;
20251;SDS011;10284;58.364;15.550;2023-04-25T03:37:25;9.73;;;4.45;;
20251;SDS011;10284;58.364;15.550;2023-04-25T03:39:50;10.45;;;4.40;;
20251;SDS011;10284;58.364;15.550;2023-04-25T03:42:16;10.00;;;4.20;;
20251;SDS011;10284;58.364;15.550;2023-04-25T03:44:41;9.73;;;4.28;;
20251;SDS011;10284;58.364;15.550;2023-04-25T03:47:07;6.82;;;4.03;;
20251;SDS011;10284;58.364;15.550;2023-04-25T03:49:32;11.05;;;4.15;;
20251;SDS011;10284;58.364;15.550;2023-04-25T03:51:58;9.23;;;3.97;;
20251;SDS011;10284;58.364;15.550;2023-04-25T03:54:25;7.93;;;4.30;;
20251;SDS011;10284;58.364;15.550;2023-04-25T03:56:50;9.48;;;4.22;;
20251;SDS011;10284;58.364;15.550;2023-04-25T03:59:16;9.15;;;4.47;;
20251;SDS011;10284;58.364;15.550;2023-04-25T04:01:41;9.90;;;4.32;;
20251;SDS011;10284;58.364;15.550;2023-04-25T04:04:07;7.53;;;4.30;;
20251;SDS011;10284;58.364;15.550;2023-04-25T04:06:32;9.43;;;4.45;;
20251;SDS011;10284;58.364;15.550;2023-04-25T04:08:58;8.38;;;4.18;;
20251;SDS011;10284;58.364;15.550;2023-04-25T04:11:23;9.00;;;4.82;;
20251;SDS011;10284;58.364;15.550;2023-04-25T04:13:49;13.25;;;4.90;;
20251;SDS011;10284;58.364;15.550;2023-04-25T04:16:14;13.60;;;4.85;;
20251;SDS011;10284;58.364;15.550;2023-04-25T04:18:40;10.60;;;4.97;;
20251;SDS011;10284;58.364;15.550;2023-04-25T04:21:05;9.30;;;5.03;;
20251;SDS011;10284;58.364;15.550;2023-04-25T04:23:31;11.02;;;5.03;;
20251;SDS011;10284;58.364;15.550;2023-04-25T04:25:56;8.98;;;4.80;;
20251;SDS011;10284;58.364;15.550;2023-04-25T04:28:21;11.73;;;5.20;;
20251;SDS011;10284;58.364;15.550;2023-04-25T04:30:47;9.57;;;4.78;;
20251;SDS011;10284;58.364;15.550;2023-04-25T04:33:13;12.70;;;4.97;;
20251;SDS011;10284;58.364;15.550;2023-04-25T04:35:40;11.10;;;5.03;;
20251;SDS011;10284;58.364;15.550;2023-04-25T04:38:06;10.77;;;4.82;;
20251;SDS011;10284;58.364;15.550;2023-04-25T04:40:32;13.77;;;4.60;;
20251;SDS011;10284;58.364;15.550;2023-04-25T04:42:57;10.35;;;5.35;;
20251;SDS011;10284;58.364;15.550;2023-04-25T04:45:23;10.38;;;5.05;;
20251;SDS011;10284;58.364;15.550;2023-04-25T04:47:49;13.02;;;7.20;;
20251;SDS011;10284;58.364;15.550;2023-04-25T04:50:15;12.90;;;5.82;;
20251;SDS011;10284;58.364;15.550;2023-04-25T04:52:41;10.07;;;5.82;;
20251;SDS011;10284;58.364;15.550;2023-04-25T04:55:07;10.02;;;5.53;;
20251;SDS011;10284;58.364;15.550;2023-04-25T04:57:33;12.38;;;6.05;;
20251;SDS011;10284;58.364;15.550;2023-04-25T04:59:59;11.40;;;6.50;;
20251;SDS011;10284;58.364;15.550;2023-04-25T05:02:25;11.80;;;6.18;;
20251;SDS011;10284;58.364;15.550;2023-04-25T05:04:51;12.50;;;5.63;;
20251;SDS011;10284;58.364;15.550;2023-04-25T05:07:17;13.65;;;6.20;;
20251;SDS011;10284;58.364;15.550;2023-04-25T05:09:43;12.90;;;6.13;;
20251;SDS011;10284;58.364;15.550;2023-04-25T05:12:08;14.15;;;6.20;;
20251;SDS011;10284;58.364;15.550;2023-04-25T05:14:34;15.55;;;6.43;;
20251;SDS011;10284;58.364;15.550;2023-04-25T05:16:59;12.77;;;6.57;;
20251;SDS011;10284;58.364;15.550;2023-04-25T05:19:25;16.08;;;6.82;;
20251;SDS011;10284;58.364;15.550;2023-04-25T05:21:51;19.70;;;7.47;;
20251;SDS011;10284;58.364;15.550;2023-04-25T05:24:17;19.77;;;6.90;;
20251;SDS011;10284;58.364;15.550;2023-04-25T05:26:42;14.02;;;6.50;;
20251;SDS011;10284;58.364;15.550;2023-04-25T05:29:08;20.25;;;7.13;;
20251;SDS011;10284;58.364;15.550;2023-04-25T05:31:33;13.73;;;5.82;;
20251;SDS011;10284;58.364;15.550;2023-04-25T05:33:59;14.35;;;6.32;;
20251;SDS011;10284;58.364;15.550;2023-04-25T05:36:24;14.88;;;6.53;;
20251;SDS011;10284;58.364;15.550;2023-04-25T05:38:50;14.43;;;6.20;;
20251;SDS011;10284;58.364;15.550;2023-04-25T05:41:16;15.27;;;5.45;;
20251;SDS011;10284;58.364;15.550;2023-04-25T05:43:41;14.18;;;5.57;;
20251;SDS011;10284;58.364;15.550;2023-04-25T05:46:12;13.40;;;6.07;;
20251;SDS011;10284;58.364;15.550;2023-04-25T05:48:38;13.82;;;6.10;;
20251;SDS011;10284;58.364;15.550;2023-04-25T05:51:04;14.52;;;5.68;;
20251;SDS011;10284;58.364;15.550;2023-04-25T05:53:29;15.95;;;5.80;;
20251;SDS011;10284;58.364;15.550;2023-04-25T05:55:55;15.32;;;5.75;;
20251;SDS011;10284;58.364;15.550;2023-04-25T05:58:20;13.70;;;5.90;;
20251;SDS011;10284;58.364;15.550;2023-04-25T06:00:46;15.07;;;5.50;;
20251;SDS011;10284;58.364;15.550;2023-04-25T06:03:11;11.75;;;5.28;;
20251;SDS011;10284;58.364;15.550;2023-04-25T06:05:40;14.25;;;5.82;;
20251;SDS011;10284;58.364;15.550;2023-04-25T06:08:06;15.55;;;5.75;;
20251;SDS011;10284;58.364;15.550;2023-04-25T06:10:31;15.30;;;5.85;;
20251;SDS011;10284;58.364;15.550;2023-04-25T06:12:57;14.73;;;5.55;;
20251;SDS011;10284;58.364;15.550;2023-04-25T06:15:22;14.43;;;5.50;;
20251;SDS011;10284;58.364;15.550;2023-04-25T06:17:48;15.20;;;5.63;;
20251;SDS011;10284;58.364;15.550;2023-04-25T06:20:14;17.17;;;6.30;;
20251;SDS011;10284;58.364;15.550;2023-04-25T06:22:39;15.20;;;6.53;;
20251;SDS011;10284;58.364;15.550;2023-04-25T06:25:05;17.38;;;6.30;;
20251;SDS011;10284;58.364;15.550;2023-04-25T06:27:32;15.15;;;6.38;;
20251;SDS011;10284;58.364;15.550;2023-04-25T06:29:58;17.23;;;6.50;;
20251;SDS011;10284;58.364;15.550;2023-04-25T06:32:23;16.73;;;6.90;;
20251;SDS011;10284;58.364;15.550;2023-04-25T06:34:48;12.98;;;6.47;;
20251;SDS011;10284;58.364;15.550;2023-04-25T06:37:14;11.88;;;5.97;;
20251;SDS011;10284;58.364;15.550;2023-04-25T06:39:39;10.93;;;5.60;;
20251;SDS011;10284;58.364;15.550;2023-04-25T06:42:05;12.55;;;5.63;;
20251;SDS011;10284;58.364;15.550;2023-04-25T06:44:30;13.38;;;5.63;;
20251;SDS011;10284;58.364;15.550;2023-04-25T06:46:56;9.90;;;5.45;;
20251;SDS011;10284;58.364;15.550;2023-04-25T06:49:21;10.77;;;5.38;;
20251;SDS011;10284;58.364;15.550;2023-04-25T06:51:47;10.20;;;5.30;;
20251;SDS011;10284;58.364;15.550;2023-04-25T06:54:13;10.52;;;5.97;;
20251;SDS011;10284;58.364;15.550;2023-04-25T06:56:38;10.68;;;5.32;;
20251;SDS011;10284;58.364;15.550;2023-04-25T06:59:03;8.90;;;5.20;;
20251;SDS011;10284;58.364;15.550;2023-04-25T07:01:29;12.25;;;5.75;;
20251;SDS011;10284;58.364;15.550;2023-04-25T07:03:55;7.65;;;4.43;;
20251;SDS011;10284;58.364;15.550;2023-04-25T07:06:20;8.77;;;4.85;;
20251;SDS011;10284;58.364;15.550;2023-04-25T07:08:45;9.88;;;4.90;;
20251;SDS011;10284;58.364;15.550;2023-04-25T07:11:11;10.07;;;5.13;;
20251;SDS011;10284;58.364;15.550;2023-04-25T07:13:36;10.80;;;4.88;;
20251;SDS011;10284;58.364;15.550;2023-04-25T07:16:02;7.07;;;4.45;;
20251;SDS011;10284;58.364;15.550;2023-04-25T07:18:28;9.85;;;5.57;;
20251;SDS011;10284;58.364;15.550;2023-04-25T07:20:53;11.13;;;5.57;;
20251;SDS011;10284;58.364;15.550;2023-04-25T07:23:19;8.73;;;5.20;;
20251;SDS011;10284;58.364;15.550;2023-04-25T07:25:44;8.68;;;4.85;;
20251;SDS011;10284;58.364;15.550;2023-04-25T07:28:10;8.07;;;4.97;;
20251;SDS011;10284;58.364;15.550;2023-04-25T07:30:35;7.57;;;4.82;;
20251;SDS011;10284;58.364;15.550;2023-04-25T07:33:01;7.45;;;4.35;;
20251;SDS011;10284;58.364;15.550;2023-04-25T07:35:27;9.35;;;6.20;;
20251;SDS011;10284;58.364;15.550;2023-04-25T07:37:52;5.88;;;3.90;;
20251;SDS011;10284;58.364;15.550;2023-04-25T07:40:18;6.65;;;4.80;;
20251;SDS011;10284;58.364;15.550;2023-04-25T07:42:43;6.75;;;4.35;;
20251;SDS011;10284;58.364;15.550;2023-04-25T07:45:09;5.40;;;4.18;;
20251;SDS011;10284;58.364;15.550;2023-04-25T07:47:35;5.43;;;3.95;;
20251;SDS011;10284;58.364;15.550;2023-04-25T07:50:01;5.60;;;4.05;;
20251;SDS011;10284;58.364;15.550;2023-04-25T07:52:27;5.90;;;4.50;;
20251;SDS011;10284;58.364;15.550;2023-04-25T07:54:53;6.03;;;4.07;;
20251;SDS011;10284;58.364;15.550;2023-04-25T07:57:19;5.65;;;4.05;;
20251;SDS011;10284;58.364;15.550;2023-04-25T07:59:45;6.60;;;3.92;;
20251;SDS011;10284;58.364;15.550;2023-04-25T08:02:10;5.65;;;4.18;;
20251;SDS011;10284;58.364;15.550;2023-04-25T08:04:36;4.75;;;3.90;;
20251;SDS011;10284;58.364;15.550;2023-04-25T08:07:01;6.97;;;4.45;;
20251;SDS011;10284;58.364;15.550;2023-04-25T08:09:27;5.97;;;4.47;;
20251;SDS011;10284;58.364;15.550;2023-04-25T08:11:52;8.73;;;4.30;;
20251;SDS011;10284;58.364;15.550;2023-04-25T08:14:18;4.93;;;4.18;;
20251;SDS011;10284;58.364;15.550;2023-04-25T08:16:43;6.05;;;4.30;;
20251;SDS011;10284;58.364;15.550;2023-04-25T08:19:09;8.68;;;4.40;;
20251;SDS011;10284;58.364;15.550;2023-04-25T08:21:36;6.85;;;4.63;;
20251;SDS011;10284;58.364;15.550;2023-04-25T08:24:01;5.97;;;4.30;;
20251;SDS011;10284;58.364;15.550;2023-04-25T08:26:27;5.50;;;4.50;;
20251;SDS011;10284;58.364;15.550;2023-04-25T08:28:53;5.90;;;4.68;;
20251;SDS011;10284;58.364;15.550;2023-04-25T08:31:18;5.93;;;4.85;;
20251;SDS011;10284;58.364;15.550;2023-04-25T08:33:44;7.43;;;4.93;;
20251;SDS011;10284;58.364;15.550;2023-04-25T08:36:10;7.65;;;5.38;;
20251;SDS011;10284;58.364;15.550;2023-04-25T08:38:35;7.00;;;5.00;;
20251;SDS011;10284;58.364;15.550;2023-04-25T08:41:01;6.82;;;5.22;;
20251;SDS011;10284;58.364;15.550;2023-04-25T08:43:27;6.90;;;5.10;;
20251;SDS011;10284;58.364;15.550;2023-04-25T08:45:54;6.70;;;4.80;;
20251;SDS011;10284;58.364;15.550;2023-04-25T08:48:24;11.90;;;5.18;;
20251;SDS011;10284;58.364;15.550;2023-04-25T08:50:53;7.88;;;5.03;;
20251;SDS011;10284;58.364;15.550;2023-04-25T08:53:22;6.20;;;4.68;;
20251;SDS011;10284;58.364;15.550;2023-04-25T08:55:52;6.85;;;4.95;;
20251;SDS011;10284;58.364;15.550;2023-04-25T08:58:18;7.07;;;5.07;;
20251;SDS011;10284;58.364;15.550;2023-04-25T09:00:45;6.07;;;4.82;;
20251;SDS011;10284;58.364;15.550;2023-04-25T09:03:11;7.68;;;5.45;;
20251;SDS011;10284;58.364;15.550;2023-04-25T09:05:37;7.63;;;5.30;;
20251;SDS011;10284;58.364;15.550;2023-04-25T09:08:05;7.25;;;5.72;;
20251;SDS011;10284;58.364;15.550;2023-04-25T09:10:31;8.23;;;6.18;;
20251;SDS011;10284;58.364;15.550;2023-04-25T09:13:09;9.80;;;6.32;;
20251;SDS011;10284;58.364;15.550;2023-04-25T09:15:46;8.65;;;5.47;;
20251;SDS011;10284;58.364;15.550;2023-04-25T09:18:12;10.00;;;5.78;;
20251;SDS011;10284;58.364;15.550;2023-04-25T09:20:41;10.15;;;6.32;;
20251;SDS011;10284;58.364;15.550;2023-04-25T09:23:07;9.23;;;6.53;;
20251;SDS011;10284;58.364;15.550;2023-04-25T09:25:34;8.82;;;6.38;;
20251;SDS011;10284;58.364;15.550;2023-04-25T09:28:03;13.15;;;6.80;;
20251;SDS011;10284;58.364;15.550;2023-04-25T09:30:30;9.85;;;6.75;;
20251;SDS011;10284;58.364;15.550;2023-04-25T09:32:57;10.75;;;7.43;;
20251;SDS011;10284;58.364;15.550;2023-04-25T09:35:29;10.20;;;7.10;;
20251;SDS011;10284;58.364;15.550;2023-04-25T09:37:55;10.73;;;7.40;;
20251;SDS011;10284;58.364;15.550;2023-04-25T09:40:20;12.15;;;7.70;;
20251;SDS011;10284;58.364;15.550;2023-04-25T09:42:46;10.32;;;7.20;;
20251;SDS011;10284;58.364;15.550;2023-04-25T09:45:12;11.10;;;7.60;;
20251;SDS011;10284;58.364;15.550;2023-04-25T09:47:40;12.65;;;7.70;;
20251;SDS011;10284;58.364;15.550;2023-04-25T09:50:15;13.57;;;7.70;;
20251;SDS011;10284;58.364;15.550;2023-04-25T09:52:41;10.68;;;7.22;;
20251;SDS011;10284;58.364;15.550;2023-04-25T09:55:07;11.40;;;7.70;;
20251;SDS011;10284;58.364;15.550;2023-04-25T09:57:32;10.73;;;6.57;;
20251;SDS011;10284;58.364;15.550;2023-04-25T09:59:58;10.10;;;6.95;;
20251;SDS011;10284;58.364;15.550;2023-04-25T10:02:25;10.18;;;7.15;;
20251;SDS011;10284;58.364;15.550;2023-04-25T10:04:53;10.10;;;7.22;;
20251;SDS011;10284;58.364;15.550;2023-04-25T10:07:20;7.85;;;6.25;;
20251;SDS011;10284;58.364;15.550;2023-04-25T10:09:50;12.65;;;7.10;;
20251;SDS011;10284;58.364;15.550;2023-04-25T10:12:27;11.68;;;7.35;;
20251;SDS011;10284;58.364;15.550;2023-04-25T10:14:54;10.77;;;7.50;;
20251;SDS011;10284;58.364;15.550;2023-04-25T10:17:20;11.60;;;7.90;;
20251;SDS011;10284;58.364;15.550;2023-04-25T10:19:46;10.63;;;7.90;;
20251;SDS011;10284;58.364;15.550;2023-04-25T10:22:32;11.07;;;7.93;;
20251;SDS011;10284;58.364;15.550;2023-04-25T10:25:00;14.65;;;8.57;;
20251;SDS011;10284;58.364;15.550;2023-04-25T10:27:29;11.50;;;8.00;;
20251;SDS011;10284;58.364;15.550;2023-04-25T10:30:08;11.73;;;7.40;;
20251;SDS011;10284;58.364;15.550;2023-04-25T10:32:36;14.50;;;7.20;;
20251;SDS011;10284;58.364;15.550;2023-04-25T10:37:36;13.32;;;8.20;;
20251;SDS011;10284;58.364;15.550;2023-04-25T10:40:08;13.55;;;8.07;;
20251;SDS011;10284;58.364;15.550;2023-04-25T10:42:35;12.98;;;8.65;;
20251;SDS011;10284;58.364;15.550;2023-04-25T10:45:09;13.15;;;8.70;;
20251;SDS011;10284;58.364;15.550;2023-04-25T10:47:35;14.50;;;8.70;;
20251;SDS011;10284;58.364;15.550;2023-04-25T10:50:08;14.65;;;9.43;;
20251;SDS011;10284;58.364;15.550;2023-04-25T10:52:33;15.98;;;10.85;;
20251;SDS011;10284;58.364;15.550;2023-04-25T10:54:59;14.82;;;9.85;;
20251;SDS011;10284;58.364;15.550;2023-04-25T11:00:15;15.07;;;9.43;;
20251;SDS011;10284;58.364;15.550;2023-04-25T11:02:45;15.93;;;9.90;;
20251;SDS011;10284;58.364;15.550;2023-04-25T11:07:50;14.52;;;9.43;;
20251;SDS011;10284;58.364;15.550;2023-04-25T11:10:24;12.20;;;8.88;;
20251;SDS011;10284;58.364;15.550;2023-04-25T11:12:50;12.10;;;8.20;;
20251;SDS011;10284;58.364;15.550;2023-04-25T11:15:16;13.70;;;7.78;;
20251;SDS011;10284;58.364;15.550;2023-04-25T11:17:41;14.30;;;9.30;;
20251;SDS011;10284;58.364;15.550;2023-04-25T11:20:08;15.65;;;9.55;;
20251;SDS011;10284;58.364;15.550;2023-04-25T11:22:37;14.90;;;9.30;;
20251;SDS011;10284;58.364;15.550;2023-04-25T11:25:04;16.02;;;9.85;;
20251;SDS011;10284;58.364;15.550;2023-04-25T11:27:31;14.60;;;9.52;;
20251;SDS011;10284;58.364;15.550;2023-04-25T11:29:56;17.20;;;9.98;;
20251;SDS011;10284;58.364;15.550;2023-04-25T11:32:22;13.75;;;9.23;;
20251;SDS011;10284;58.364;15.550;2023-04-25T11:34:48;15.05;;;9.10;;
20251;SDS011;10284;58.364;15.550;2023-04-25T11:37:14;13.23;;;8.80;;
20251;SDS011;10284;58.364;15.550;2023-04-25T11:39:43;13.45;;;9.00;;
20251;SDS011;10284;58.364;15.550;2023-04-25T11:42:10;11.48;;;8.38;;
20251;SDS011;10284;58.364;15.550;2023-04-25T11:44:37;11.88;;;8.27;;
20251;SDS011;10284;58.364;15.550;2023-04-25T11:47:03;12.20;;;7.82;;
20251;SDS011;10284;58.364;15.550;2023-04-25T11:49:32;10.82;;;7.95;;
20251;SDS011;10284;58.364;15.550;2023-04-25T11:51:57;9.48;;;6.75;;
20251;SDS011;10284;58.364;15.550;2023-04-25T11:54:22;12.25;;;7.57;;
20251;SDS011;10284;58.364;15.550;2023-04-25T11:56:48;9.40;;;7.07;;
20251;SDS011;10284;58.364;15.550;2023-04-25T11:59:13;10.65;;;7.20;;
20251;SDS011;10284;58.364;15.550;2023-04-25T12:01:47;11.13;;;7.68;;
20251;SDS011;10284;58.364;15.550;2023-04-25T12:04:23;10.43;;;7.45;;
20251;SDS011;10284;58.364;15.550;2023-04-25T12:09:28;11.27;;;6.90;;
20251;SDS011;10284;58.364;15.550;2023-04-25T12:11:54;12.13;;;8.80;;
20251;SDS011;10284;58.364;15.550;2023-04-25T12:14:24;11.85;;;8.40;;
20251;SDS011;10284;58.364;15.550;2023-04-25T12:16:57;11.95;;;8.35;;
20251;SDS011;10284;58.364;15.550;2023-04-25T12:19:24;10.70;;;7.22;;
20251;SDS011;10284;58.364;15.550;2023-04-25T12:21:50;7.93;;;5.70;;
20251;SDS011;10284;58.364;15.550;2023-04-25T12:24:17;8.93;;;6.40;;
20251;SDS011;10284;58.364;15.550;2023-04-25T12:26:54;8.55;;;6.32;;
20251;SDS011;10284;58.364;15.550;2023-04-25T12:29:25;8.57;;;6.50;;
20251;SDS011;10284;58.364;15.550;2023-04-25T12:31:52;9.57;;;6.20;;
20251;SDS011;10284;58.364;15.550;2023-04-25T12:34:19;7.93;;;6.15;;
20251;SDS011;10284;58.364;15.550;2023-04-25T12:36:44;8.52;;;6.00;;
20251;SDS011;10284;58.364;15.550;2023-04-25T12:39:16;8.88;;;6.53;;
20251;SDS011;10284;58.364;15.550;2023-04-25T12:41:44;9.82;;;6.90;;
20251;SDS011;10284;58.364;15.550;2023-04-25T12:44:10;10.32;;;7.50;;
20251;SDS011;10284;58.364;15.550;2023-04-25T12:46:36;11.95;;;7.32;;
20251;SDS011;10284;58.364;15.550;2023-04-25T12:49:03;7.43;;;6.13;;
20251;SDS011;10284;58.364;15.550;2023-04-25T12:51:29;9.05;;;6.68;;
20251;SDS011;10284;58.364;15.550;2023-04-25T12:53:54;7.78;;;6.28;;
20251;SDS011;10284;58.364;15.550;2023-04-25T12:56:20;7.82;;;6.22;;
20251;SDS011;10284;58.364;15.550;2023-04-25T12:58:45;8.38;;;6.50;;
20251;SDS011;10284;58.364;15.550;2023-04-25T13:01:13;8.32;;;5.97;;
20251;SDS011;10284;58.364;15.550;2023-04-25T13:03:39;8.63;;;5.95;;
20251;SDS011;10284;58.364;15.550;2023-04-25T13:06:05;7.55;;;5.72;;
20251;SDS011;10284;58.364;15.550;2023-04-25T13:08:31;9.43;;;6.55;;
20251;SDS011;10284;58.364;15.550;2023-04-25T13:10:57;8.38;;;6.68;;
20251;SDS011;10284;58.364;15.550;2023-04-25T13:13:22;9.65;;;6.53;;
20251;SDS011;10284;58.364;15.550;2023-04-25T13:15:48;10.27;;;7.40;;
20251;SDS011;10284;58.364;15.550;2023-04-25T13:18:14;10.60;;;7.13;;
20251;SDS011;10284;58.364;15.550;2023-04-25T13:20:40;10.10;;;7.68;;
20251;SDS011;10284;58.364;15.550;2023-04-25T13:23:05;10.13;;;7.25;;
20251;SDS011;10284;58.364;15.550;2023-04-25T13:25:30;10.57;;;7.82;;
20251;SDS011;10284;58.364;15.550;2023-04-25T13:27:56;10.80;;;7.30;;
20251;SDS011;10284;58.364;15.550;2023-04-25T13:30:21;11.07;;;7.65;;
20251;SDS011;10284;58.364;15.550;2023-04-25T13:32:47;10.10;;;8.10;;
20251;SDS011;10284;58.364;15.550;2023-04-25T13:35:12;9.18;;;6.70;;
20251;SDS011;10284;58.364;15.550;2023-04-25T13:37:39;8.35;;;6.68;;
20251;SDS011;10284;58.364;15.550;2023-04-25T13:40:06;8.95;;;6.75;;
20251;SDS011;10284;58.364;15.550;2023-04-25T13:42:34;9.32;;;6.50;;
20251;SDS011;10284;58.364;15.550;2023-04-25T13:45:00;11.48;;;6.97;;
20251;SDS011;10284;58.364;15.550;2023-04-25T13:47:26;9.68;;;7.10;;
20251;SDS011;10284;58.364;15.550;2023-04-25T13:49:52;8.95;;;6.78;;
20251;SDS011;10284;58.364;15.550;2023-04-25T13:52:17;9.50;;;6.65;;
20251;SDS011;10284;58.364;15.550;2023-04-25T13:54:43;8.70;;;6.72;;
20251;SDS011;10284;58.364;15.550;2023-04-25T13:57:08;8.45;;;6.53;;
20251;SDS011;10284;58.364;15.550;2023-04-25T13:59:36;8.63;;;7.05;;
20251;SDS011;10284;58.364;15.550;2023-04-25T14:02:01;9.35;;;6.60;;
20251;SDS011;10284;58.364;15.550;2023-04-25T14:04:27;9.73;;;6.95;;
20251;SDS011;10284;58.364;15.550;2023-04-25T14:06:52;9.20;;;7.32;;
20251;SDS011;10284;58.364;15.550;2023-04-25T14:09:18;9.77;;;7.07;;
20251;SDS011;10284;58.364;15.550;2023-04-25T14:11:45;9.48;;;6.82;;
20251;SDS011;10284;58.364;15.550;2023-04-25T14:14:11;8.38;;;6.53;;
20251;SDS011;10284;58.364;15.550;2023-04-25T14:16:38;8.73;;;6.38;;
20251;SDS011;10284;58.364;15.550;2023-04-25T14:19:03;9.18;;;6.43;;
20251;SDS011;10284;58.364;15.550;2023-04-25T14:21:29;10.52;;;6.63;;
20251;SDS011;10284;58.364;15.550;2023-04-25T14:23:56;8.25;;;5.80;;
20251;SDS011;10284;58.364;15.550;2023-04-25T14:26:22;7.45;;;6.03;;
20251;SDS011;10284;58.364;15.550;2023-04-25T14:28:47;9.13;;;6.50;;
20251;SDS011;10284;58.364;15.550;2023-04-25T14:31:12;9.65;;;6.53;;
20251;SDS011;10284;58.364;15.550;2023-04-25T14:33:38;6.65;;;5.10;;